Time;durP1;ratioP1;P1;durP2;ratioP2;P2;SDS_P1;SDS_P2;PMS_P1;PMS_P2;Temp;Humidity;BMP_temperature;BMP_pressure;BME280_temperature;BME280_humidity;BME280_pressure;Samples;Min_cycle;Max_cycle;Signal;HPM_P1;HPM_P2
2022/01/20 00:00:13;;;;;;;;;;;;;;;7.38;35.30;100006.97;4462982;32;34389;-66
2022/01/20 00:02:38;;;;;;;;;;;;;;;7.08;36.53;100009.59;4464812;32;33395;-67
2022/01/20 00:27:10;;;;;;;;;;;;;;;6.71;36.28;100011.62;4460314;32;33852;-68
2022/01/20 00:37:30;;;;;;;;;;;;;;;6.00;38.68;100018.03;4464974;32;34534;-68
2022/01/20 00:39:57;;;;;;;;;;;;;;;6.30;38.34;100018.22;4465349;32;34240;-66
2022/01/20 00:42:25;;;;;;;;;;;;;;;6.47;37.62;100024.44;4466581;32;34456;-67
2022/01/20 00:44:52;;;;;;;;;;;;;;;6.20;38.39;100017.00;4470672;32;32987;-68
2022/01/20 00:47:20;;;;;;;;;;;;;;;6.27;38.71;100020.19;4464150;32;32919;-67
2022/01/20 00:49:48;;;;;;;;;;;;;;;6.60;37.04;100019.31;4464986;32;34209;-69
2022/01/20 00:52:15;;;;;;;;;;;;;;;6.42;37.98;100021.16;4463810;32;33428;-67
2022/01/20 00:54:42;;;;;;;;;;;;;;;6.76;36.43;100020.22;4464767;32;33290;-67
2022/01/20 00:57:10;;;;;;;;;;;;;;;6.73;36.07;100021.22;4464384;32;33954;-68
2022/01/20 00:59:37;;;;;;;;;;;;;;;6.61;36.09;100021.03;4465580;32;34012;-68
2022/01/20 01:02:08;;;;;;;;;;;;;;;6.62;35.94;100020.09;4464718;32;33738;-67
2022/01/20 01:04:36;;;;;;;;;;;;;;;6.20;37.57;100022.31;4463099;32;34424;-67
2022/01/20 01:09:32;;;;;;;;;;;;;;;5.73;39.31;100024.72;4462600;32;34846;-67
2022/01/20 01:12:03;;;;;;;;;;;;;;;5.65;39.54;100017.13;4463048;32;33898;-68
2022/01/20 01:14:33;;;;;;;;;;;;;;;6.37;37.20;100026.72;4462261;32;34222;-67
2022/01/20 01:24:45;;;;;;;;;;;;;;;5.76;38.83;100030.72;4463770;32;35529;-68
2022/01/20 01:27:13;;;;;;;;;;;;;;;6.06;38.13;100016.84;4461948;32;33957;-67
2022/01/20 01:32:33;;;;;;;;;;;;;;;6.38;37.25;100008.97;4461883;32;32708;-69
2022/01/20 01:35:05;;;;;;;;;;;;;;;6.39;37.69;100000.03;4463954;32;33491;-68
2022/01/20 01:40:00;;;;;;;;;;;;;;;6.56;37.18;99980.53;4462473;32;33830;-68
2022/01/20 01:42:46;;;;;;;;;;;;;;;6.30;38.53;99975.69;4461578;32;34096;-68
2022/01/20 01:45:18;;;;;;;;;;;;;;;6.54;37.84;99977.94;4462003;32;33479;-69
2022/01/20 01:47:46;;;;;;;;;;;;;;;6.52;38.31;99964.75;4468770;32;33867;-68
2022/01/20 01:50:14;;;;;;;;;;;;;;;6.22;39.57;99948.63;4469200;32;34414;-69
2022/01/20 01:52:42;;;;;;;;;;;;;;;6.42;39.05;99952.03;4470014;32;34055;-68
2022/01/20 01:55:10;;;;;;;;;;;;;;;6.69;39.03;99953.19;4469760;32;34076;-69
2022/01/20 01:57:38;;;;;;;;;;;;;;;6.78;38.89;99940.31;4471420;32;33748;-68
2022/01/20 02:00:06;;;;;;;;;;;;;;;6.79;39.17;99934.06;4469075;32;34317;-67
2022/01/20 02:02:42;;;;;;;;;;;;;;;6.72;39.72;99930.88;4468254;32;34409;-68
2022/01/20 02:05:14;;;;;;;;;;;;;;;6.54;40.23;99938.06;4469302;32;33983;-66
2022/01/20 02:21:04;;;;;;;;;;;;;;;6.84;40.68;99897.38;4469749;32;34248;-66
2022/01/20 02:23:32;;;;;;;;;;;;;;;6.84;40.40;99886.75;4470919;32;34710;-66
2022/01/20 02:26:00;;;;;;;;;;;;;;;6.76;40.80;99882.72;4479593;31;33207;-67
2022/01/20 02:28:27;;;;;;;;;;;;;;;6.54;41.39;99880.41;4469550;32;34823;-66
2022/01/20 02:30:55;;;;;;;;;;;;;;;7.14;39.78;99877.00;4468790;32;34111;-66
2022/01/20 02:33:23;;;;;;;;;;;;;;;7.26;38.86;99871.91;4470203;32;34530;-68
2022/01/20 02:35:55;;;;;;;;;;;;;;;7.04;39.93;99872.31;4474310;32;33499;-66
2022/01/20 02:38:39;;;;;;;;;;;;;;;7.01;39.91;99878.66;4466019;32;33729;-66
2022/01/20 02:46:39;;;;;;;;;;;;;;;7.01;39.40;99865.38;4463529;32;33432;-68
2022/01/20 02:49:12;;;;;;;;;;;;;;;6.76;39.83;99855.28;4470254;32;34222;-67
2022/01/20 02:51:45;;;;;;;;;;;;;;;7.18;39.06;99865.22;4468467;32;34382;-67
2022/01/20 02:54:13;;;;;;;;;;;;;;;7.07;39.51;99862.34;4469310;32;34158;-67
2022/01/20 02:56:40;;;;;;;;;;;;;;;7.40;38.37;99858.63;4468788;32;34054;-67
2022/01/20 02:59:08;;;;;;;;;;;;;;;7.50;38.21;99861.59;4466110;32;34311;-64
2022/01/20 03:01:35;;;;;;;;;;;;;;;7.53;37.98;99858.75;4462787;32;34945;-65
2022/01/20 03:04:03;;;;;;;;;;;;;;;7.49;37.74;99843.91;4465838;32;33887;-64
2022/01/20 03:06:31;;;;;;;;;;;;;;;7.30;38.16;99854.81;4465270;32;32954;-64
2022/01/20 03:08:58;;;;;;;;;;;;;;;6.78;39.11;99837.44;4465678;32;34289;-64
2022/01/20 03:11:26;;;;;;;;;;;;;;;6.59;38.84;99829.62;4465249;32;34920;-67
2022/01/20 03:13:53;;;;;;;;;;;;;;;6.38;40.21;99834.34;4466257;32;33968;-64
2022/01/20 03:16:20;;;;;;;;;;;;;;;6.89;39.41;99829.66;4464616;32;32808;-64
2022/01/20 03:18:48;;;;;;;;;;;;;;;7.21;38.51;99829.56;4464719;32;32724;-64
2022/01/20 03:21:15;;;;;;;;;;;;;;;7.57;36.91;99829.16;4464155;32;34168;-65
2022/01/20 03:23:43;;;;;;;;;;;;;;;7.38;37.71;99820.56;4466634;32;34236;-64
2022/01/20 03:26:12;;;;;;;;;;;;;;;7.47;37.86;99820.03;4465602;32;33669;-66
2022/01/20 03:28:39;;;;;;;;;;;;;;;7.64;37.15;99808.31;4467416;32;34022;-64
2022/01/20 03:31:07;;;;;;;;;;;;;;;7.46;37.77;99810.31;4464915;32;34163;-67
2022/01/20 03:33:34;;;;;;;;;;;;;;;7.74;37.41;99804.16;4466535;32;33849;-65
2022/01/20 03:36:02;;;;;;;;;;;;;;;8.02;36.08;99795.28;4466374;32;34496;-64
2022/01/20 03:38:31;;;;;;;;;;;;;;;7.89;36.29;99805.84;4465119;32;33076;-65
2022/01/20 03:40:58;;;;;;;;;;;;;;;8.35;35.33;99796.75;4465857;32;34218;-64
2022/01/20 03:43:26;;;;;;;;;;;;;;;8.32;35.82;99797.81;4464453;32;33618;-65
2022/01/20 03:45:56;;;;;;;;;;;;;;;8.31;35.60;99779.22;4464446;32;33700;-67
2022/01/20 03:48:26;;;;;;;;;;;;;;;8.26;35.55;99781.34;4463864;32;33497;-66
2022/01/20 03:51:00;;;;;;;;;;;;;;;8.60;34.54;99785.34;4466945;32;33235;-64
2022/01/20 03:53:29;;;;;;;;;;;;;;;8.57;34.89;99782.88;4464907;32;35135;-63
2022/01/20 03:55:57;;;;;;;;;;;;;;;8.78;34.35;99780.63;4465070;32;33594;-64
2022/01/20 03:58:25;;;;;;;;;;;;;;;8.88;33.95;99787.03;4464974;32;32688;-64
2022/01/20 04:00:52;;;;;;;;;;;;;;;9.00;33.90;99778.22;4465055;32;35316;-64
2022/01/20 04:03:21;;;;;;;;;;;;;;;8.58;35.60;99766.78;4465563;32;34755;-64
2022/01/20 04:05:57;;;;;;;;;;;;;;;8.08;36.12;99772.72;4466419;32;33299;-63
2022/01/20 04:08:26;;;;;;;;;;;;;;;7.98;36.32;99777.78;4464817;32;34015;-64
2022/01/20 04:10:54;;;;;;;;;;;;;;;8.81;33.77;99772.41;4464968;32;34363;-65
2022/01/20 04:13:22;;;;;;;;;;;;;;;8.70;34.63;99765.13;4464598;32;34300;-65
2022/01/20 04:15:51;;;;;;;;;;;;;;;8.65;34.24;99763.72;4464876;32;33580;-64
2022/01/20 04:18:23;;;;;;;;;;;;;;;8.90;34.00;99776.28;4465672;32;33999;-66
2022/01/20 04:20:51;;;;;;;;;;;;;;;9.01;34.06;99777.25;4465774;32;34745;-66
2022/01/20 04:23:18;;;;;;;;;;;;;;;8.22;35.36;99777.16;4465765;32;34085;-66
2022/01/20 04:25:46;;;;;;;;;;;;;;;8.58;34.49;99771.28;4462865;32;34917;-67
2022/01/20 04:28:13;;;;;;;;;;;;;;;8.75;34.21;99775.47;4464506;32;34286;-66
2022/01/20 04:30:41;;;;;;;;;;;;;;;8.54;34.57;99767.97;4466858;32;33807;-66
2022/01/20 04:33:08;;;;;;;;;;;;;;;8.87;33.88;99772.00;4465300;32;33985;-66
2022/01/20 04:35:36;;;;;;;;;;;;;;;8.80;34.11;99766.22;4466826;32;33217;-66
2022/01/20 04:38:04;;;;;;;;;;;;;;;7.41;36.54;99773.31;4464485;32;35149;-65
2022/01/20 04:40:37;;;;;;;;;;;;;;;8.04;36.08;99773.88;4460912;32;34040;-65
2022/01/20 04:43:06;;;;;;;;;;;;;;;8.50;34.98;99785.09;4464540;32;35028;-65
2022/01/20 04:45:39;;;;;;;;;;;;;;;8.76;33.96;99793.19;4463035;32;34407;-64
2022/01/20 04:59:05;;;;;;;;;;;;;;;8.63;34.39;99793.16;4464425;32;33630;-65
2022/01/20 05:01:32;;;;;;;;;;;;;;;8.68;34.41;99787.53;4466698;32;34660;-66
2022/01/20 05:04:02;;;;;;;;;;;;;;;8.69;34.50;99781.22;4463274;32;34191;-64
2022/01/20 05:06:31;;;;;;;;;;;;;;;8.81;34.07;99783.94;4460596;32;34292;-65
2022/01/20 05:08:59;;;;;;;;;;;;;;;8.73;34.46;99775.59;4465234;32;34058;-65
2022/01/20 05:11:26;;;;;;;;;;;;;;;8.78;34.54;99773.47;4465586;32;32850;-66
2022/01/20 05:13:54;;;;;;;;;;;;;;;8.99;33.33;99773.84;4465079;32;34151;-67
2022/01/20 05:16:24;;;;;;;;;;;;;;;8.92;33.42;99777.88;4464602;32;32259;-66
2022/01/20 05:18:51;;;;;;;;;;;;;;;8.88;33.98;99771.03;4465678;32;34163;-65
2022/01/20 05:21:20;;;;;;;;;;;;;;;8.81;33.96;99777.75;4465213;32;34244;-65
2022/01/20 05:23:47;;;;;;;;;;;;;;;8.80;33.79;99774.22;4463424;32;34162;-68
2022/01/20 05:26:14;;;;;;;;;;;;;;;8.76;33.90;99791.38;4464521;32;34424;-69
2022/01/20 05:28:42;;;;;;;;;;;;;;;8.73;34.12;99788.94;4464178;32;33916;-66
2022/01/20 05:31:10;;;;;;;;;;;;;;;8.90;33.58;99779.81;4464043;32;34070;-65
2022/01/20 05:33:37;;;;;;;;;;;;;;;8.50;35.12;99765.56;4465082;32;34348;-67
2022/01/20 05:36:05;;;;;;;;;;;;;;;8.43;34.68;99769.59;4465011;32;35176;-65
2022/01/20 05:38:32;;;;;;;;;;;;;;;8.11;35.32;99773.37;4464614;32;34149;-66
2022/01/20 05:40:59;;;;;;;;;;;;;;;8.25;34.91;99764.50;4465573;32;34103;-65
2022/01/20 05:43:27;;;;;;;;;;;;;;;8.30;34.91;99773.03;4464534;32;35385;-65
2022/01/20 05:45:55;;;;;;;;;;;;;;;8.21;35.61;99770.13;4464032;32;32648;-67
2022/01/20 05:48:33;;;;;;;;;;;;;;;8.22;35.05;99764.69;4464190;32;34085;-65
2022/01/20 05:51:04;;;;;;;;;;;;;;;8.15;35.75;99764.25;4464622;32;35493;-65
2022/01/20 05:53:32;;;;;;;;;;;;;;;8.27;35.78;99761.72;4457478;32;34782;-65
2022/01/20 05:55:59;;;;;;;;;;;;;;;8.39;35.14;99764.47;4464148;32;33484;-65
2022/01/20 05:58:27;;;;;;;;;;;;;;;8.45;34.93;99768.56;4460981;32;34643;-65
2022/01/20 06:00:55;;;;;;;;;;;;;;;8.51;35.19;99773.50;4464450;32;35402;-66
2022/01/20 06:03:39;;;;;;;;;;;;;;;8.36;35.85;99777.97;4464513;32;34117;-65
2022/01/20 06:06:08;;;;;;;;;;;;;;;8.38;35.96;99783.25;4463792;32;31817;-64
2022/01/20 06:08:36;;;;;;;;;;;;;;;8.60;35.61;99774.69;4462474;32;35262;-65
2022/01/20 06:11:03;;;;;;;;;;;;;;;8.26;36.68;99774.19;4464626;32;34452;-64
2022/01/20 06:13:31;;;;;;;;;;;;;;;8.34;36.07;99771.03;4463190;32;34096;-66
2022/01/20 06:15:59;;;;;;;;;;;;;;;8.51;35.78;99760.16;4464085;32;33240;-67
2022/01/20 06:18:26;;;;;;;;;;;;;;;8.67;35.15;99761.78;4464224;32;33901;-68
2022/01/20 06:20:54;;;;;;;;;;;;;;;8.58;35.34;99764.13;4463582;32;34227;-66
2022/01/20 06:23:22;;;;;;;;;;;;;;;8.61;35.44;99757.72;4463319;32;37039;-64
2022/01/20 06:25:49;;;;;;;;;;;;;;;8.52;35.62;99761.84;4463118;32;33517;-65
2022/01/20 06:28:17;;;;;;;;;;;;;;;8.83;34.98;99760.69;4464357;32;33131;-67
2022/01/20 06:30:46;;;;;;;;;;;;;;;8.93;34.83;99762.72;4463774;32;34160;-63
2022/01/20 06:33:14;;;;;;;;;;;;;;;8.77;35.81;99758.41;4464247;32;35363;-65
2022/01/20 06:35:41;;;;;;;;;;;;;;;8.73;36.71;99764.03;4466906;32;33333;-64
2022/01/20 06:38:09;;;;;;;;;;;;;;;8.55;37.30;99766.13;4466713;32;34356;-65
2022/01/20 06:40:36;;;;;;;;;;;;;;;8.52;38.33;99767.19;4464979;32;34512;-65
2022/01/20 06:43:05;;;;;;;;;;;;;;;9.00;37.56;99772.87;4465337;32;35458;-66
2022/01/20 06:45:33;;;;;;;;;;;;;;;9.07;36.95;99773.31;4465561;32;33615;-64
2022/01/20 06:48:00;;;;;;;;;;;;;;;9.17;37.23;99776.22;4465634;32;32872;-65
2022/01/20 06:50:28;;;;;;;;;;;;;;;9.18;37.37;99761.88;4463866;32;32850;-65
2022/01/20 06:52:56;;;;;;;;;;;;;;;8.53;38.77;99752.03;4464485;32;35201;-65
2022/01/20 06:55:23;;;;;;;;;;;;;;;9.05;38.10;99751.19;4465826;32;34326;-67
2022/01/20 06:57:51;;;;;;;;;;;;;;;8.78;38.43;99756.59;4466828;32;34430;-66
2022/01/20 07:00:20;;;;;;;;;;;;;;;8.60;39.04;99753.34;4463286;32;34372;-66
2022/01/20 07:02:49;;;;;;;;;;;;;;;8.69;38.80;99752.72;4466262;32;33928;-66
2022/01/20 07:05:18;;;;;;;;;;;;;;;8.83;37.94;99743.81;4464820;32;34586;-69
2022/01/20 07:07:46;;;;;;;;;;;;;;;9.04;37.92;99739.66;4467033;32;34369;-66
2022/01/20 07:10:17;;;;;;;;;;;;;;;8.80;38.43;99728.00;4463839;32;34373;-66
2022/01/20 07:12:46;;;;;;;;;;;;;;;9.00;38.39;99738.16;4465466;32;34484;-67
2022/01/20 07:15:14;;;;;;;;;;;;;;;9.49;37.21;99736.59;4463561;32;34180;-66
2022/01/20 07:17:42;;;;;;;;;;;;;;;9.56;36.95;99735.19;4466680;32;34312;-67
2022/01/20 07:20:10;;;;;;;;;;;;;;;9.55;37.19;99725.47;4464947;32;35405;-67
2022/01/20 07:22:38;;;;;;;;;;;;;;;9.52;37.61;99734.53;4466823;32;34423;-67
2022/01/20 07:25:06;;;;;;;;;;;;;;;9.49;37.79;99726.75;4465329;32;33220;-65
2022/01/20 07:27:35;;;;;;;;;;;;;;;9.52;37.32;99707.81;4465197;32;35306;-64
2022/01/20 07:30:23;;;;;;;;;;;;;;;9.95;36.52;99707.44;4465761;32;34137;-65
2022/01/20 07:32:50;;;;;;;;;;;;;;;9.27;37.94;99705.16;4462163;31;35383;-66
2022/01/20 07:35:18;;;;;;;;;;;;;;;8.98;38.59;99710.72;4465372;32;32288;-66
2022/01/20 07:37:45;;;;;;;;;;;;;;;9.03;38.78;99715.75;4458856;32;159540;-64
2022/01/20 07:40:13;;;;;;;;;;;;;;;9.09;38.08;99720.69;4464709;32;34357;-65
2022/01/20 07:42:40;;;;;;;;;;;;;;;8.48;40.13;99722.16;4464454;32;34936;-67
2022/01/20 07:45:08;;;;;;;;;;;;;;;8.43;40.50;99709.13;4465429;32;32990;-69
2022/01/20 07:47:36;;;;;;;;;;;;;;;8.94;39.35;99708.38;4462135;32;33931;-67
2022/01/20 07:50:04;;;;;;;;;;;;;;;9.14;38.89;99710.50;4464412;32;35021;-67
2022/01/20 07:52:31;;;;;;;;;;;;;;;9.22;38.91;99699.31;4463388;32;34947;-67
2022/01/20 07:55:00;;;;;;;;;;;;;;;8.78;39.53;99698.75;4462589;32;32111;-65
2022/01/20 07:57:28;;;;;;;;;;;;;;;8.09;41.68;99705.97;4463649;32;36146;-65
2022/01/20 07:59:55;;;;;;;;;;;;;;;8.14;41.89;99703.00;4465658;32;34172;-69
2022/01/20 08:02:25;;;;;;;;;;;;;;;9.03;39.77;99705.94;4463940;32;32681;-68
2022/01/20 08:04:53;;;;;;;;;;;;;;;9.60;38.30;99699.28;4459300;32;34201;-67
2022/01/20 08:07:20;;;;;;;;;;;;;;;9.57;38.76;99712.84;4463324;32;33775;-66
2022/01/20 08:09:53;;;;;;;;;;;;;;;9.45;39.76;99713.72;4461458;32;34964;-66
2022/01/20 08:12:22;;;;;;;;;;;;;;;9.35;39.38;99708.19;4465545;32;34026;-67
2022/01/20 08:14:50;;;;;;;;;;;;;;;8.78;40.47;99713.91;4464142;32;34345;-67
2022/01/20 08:17:17;;;;;;;;;;;;;;;9.33;40.00;99710.94;4465267;32;34070;-67
2022/01/20 08:19:45;;;;;;;;;;;;;;;9.30;40.30;99712.97;4464837;32;34441;-67
2022/01/20 08:22:13;;;;;;;;;;;;;;;9.52;39.77;99715.84;4465359;32;34051;-67
2022/01/20 08:25:08;;;;;;;;;;;;;;;9.45;39.97;99708.38;4464336;32;33415;-67
2022/01/20 08:27:39;;;;;;;;;;;;;;;9.48;39.56;99708.16;4456970;32;33949;-67
2022/01/20 08:30:07;;;;;;;;;;;;;;;9.91;38.78;99713.94;4463863;32;35136;-67
2022/01/20 08:32:35;;;;;;;;;;;;;;;10.13;38.32;99710.56;4465634;32;32939;-67
2022/01/20 08:35:06;;;;;;;;;;;;;;;9.89;39.04;99713.22;4464404;32;34121;-67
2022/01/20 08:37:33;;;;;;;;;;;;;;;10.17;38.31;99716.53;4462379;32;33856;-68
2022/01/20 08:40:04;;;;;;;;;;;;;;;9.89;39.26;99721.25;4464502;32;34426;-67
2022/01/20 08:42:32;;;;;;;;;;;;;;;9.44;40.27;99712.03;4465596;32;33851;-67
2022/01/20 08:44:59;;;;;;;;;;;;;;;9.74;40.09;99714.31;4464941;32;33010;-67
2022/01/20 08:47:27;;;;;;;;;;;;;;;9.91;39.69;99702.41;4464833;32;34297;-68
2022/01/20 08:49:55;;;;;;;;;;;;;;;9.75;40.40;99687.47;4464244;32;34463;-67
2022/01/20 08:52:22;;;;;;;;;;;;;;;10.06;39.54;99697.75;4464910;32;35226;-68
2022/01/20 08:54:50;;;;;;;;;;;;;;;9.72;40.41;99687.69;4464419;32;32885;-68
2022/01/20 08:57:19;;;;;;;;;;;;;;;10.06;39.53;99689.75;4462821;32;34185;-68
2022/01/20 08:59:46;;;;;;;;;;;;;;;9.95;39.77;99688.72;4462474;32;34018;-68
2022/01/20 09:02:14;;;;;;;;;;;;;;;9.68;40.54;99693.38;4465533;32;33967;-68
2022/01/20 09:04:41;;;;;;;;;;;;;;;9.37;41.15;99702.72;4463745;32;33217;-67
2022/01/20 09:07:10;;;;;;;;;;;;;;;9.32;41.30;99701.22;4467855;32;34932;-67
2022/01/20 09:09:42;;;;;;;;;;;;;;;10.03;39.64;99705.03;4467540;32;35214;-67
2022/01/20 09:17:26;;;;;;;;;;;;;;;9.93;39.99;99716.53;4468282;32;34618;-67
2022/01/20 09:19:54;;;;;;;;;;;;;;;9.68;40.28;99712.94;4462147;32;34227;-67
2022/01/20 09:22:24;;;;;;;;;;;;;;;9.51;40.88;99716.81;4466900;32;34841;-67
2022/01/20 09:24:52;;;;;;;;;;;;;;;9.98;39.72;99720.59;4467171;32;31981;-67
2022/01/20 09:27:19;;;;;;;;;;;;;;;9.79;40.35;99718.37;4467587;32;34478;-67
2022/01/20 09:29:46;;;;;;;;;;;;;;;9.86;40.15;99717.94;4465893;32;34239;-67
2022/01/20 09:32:16;;;;;;;;;;;;;;;9.51;41.05;99713.28;4466095;32;35228;-67
2022/01/20 09:34:44;;;;;;;;;;;;;;;9.57;41.04;99715.53;4467040;32;33363;-67
2022/01/20 09:37:12;;;;;;;;;;;;;;;9.89;40.16;99707.88;4467330;32;34283;-67
2022/01/20 09:39:40;;;;;;;;;;;;;;;9.47;40.98;99718.00;4466521;32;35153;-64
2022/01/20 09:42:08;;;;;;;;;;;;;;;9.61;40.90;99703.66;4467600;32;35179;-72
2022/01/20 09:44:41;;;;;;;;;;;;;;;9.68;41.10;99720.09;4466060;32;33009;-66
2022/01/20 09:47:08;;;;;;;;;;;;;;;9.83;40.80;99713.66;4467459;32;34826;-66
2022/01/20 09:49:38;;;;;;;;;;;;;;;9.97;40.81;99708.16;4466817;32;35394;-66
2022/01/20 09:52:07;;;;;;;;;;;;;;;9.89;41.09;99715.91;4464981;32;33469;-66
2022/01/20 09:54:36;;;;;;;;;;;;;;;8.81;44.23;99713.69;4466761;32;34396;-64
2022/01/20 09:57:04;;;;;;;;;;;;;;;8.54;44.97;99717.28;4475978;32;33488;-64
2022/01/20 09:59:32;;;;;;;;;;;;;;;8.75;44.90;99709.63;4467319;32;33875;-65
2022/01/20 10:02:00;;;;;;;;;;;;;;;8.30;45.85;99703.69;4466696;32;34586;-67
2022/01/20 10:04:32;;;;;;;;;;;;;;;7.97;47.12;99700.59;4467654;32;34441;-67
2022/01/20 10:07:04;;;;;;;;;;;;;;;7.92;47.35;99698.22;4466053;32;34726;-67
2022/01/20 10:09:38;;;;;;;;;;;;;;;7.89;47.98;99703.72;4466521;32;34540;-66
2022/01/20 10:12:07;;;;;;;;;;;;;;;8.36;46.86;99705.97;4468230;32;33869;-64
2022/01/20 10:14:50;;;;;;;;;;;;;;;7.54;50.03;99712.16;4468251;32;32258;-64
2022/01/20 10:17:23;;;;;;;;;;;;;;;7.55;50.14;99705.91;4466805;32;33768;-66
2022/01/20 10:19:54;;;;;;;;;;;;;;;7.70;50.54;99704.94;4468810;32;34210;-66
2022/01/20 10:22:24;;;;;;;;;;;;;;;7.66;51.37;99706.06;4466903;32;33291;-66
2022/01/20 10:25:01;;;;;;;;;;;;;;;7.37;52.71;99691.06;4468913;32;33488;-66
2022/01/20 10:27:31;;;;;;;;;;;;;;;7.39;53.54;99674.03;4465600;32;34208;-66
2022/01/20 10:30:06;;;;;;;;;;;;;;;7.86;52.55;99682.59;4467703;32;34476;-66
2022/01/20 10:32:38;;;;;;;;;;;;;;;7.94;52.68;99670.50;4462464;32;32429;-66
2022/01/20 10:35:06;;;;;;;;;;;;;;;7.83;53.05;99672.16;4469065;32;33336;-66
2022/01/20 10:37:34;;;;;;;;;;;;;;;7.52;54.66;99663.47;4467161;32;33065;-65
2022/01/20 10:40:12;;;;;;;;;;;;;;;7.20;55.79;99660.16;4467600;32;35255;-66
2022/01/20 10:42:45;;;;;;;;;;;;;;;7.64;54.95;99662.69;4463298;32;33938;-66
2022/01/20 10:45:18;;;;;;;;;;;;;;;7.28;56.05;99647.22;4469439;32;32068;-66
2022/01/20 10:47:50;;;;;;;;;;;;;;;7.36;56.25;99652.09;4466376;32;32871;-66
2022/01/20 10:50:23;;;;;;;;;;;;;;;6.85;58.16;99646.38;4468078;32;34036;-66
2022/01/20 10:52:52;;;;;;;;;;;;;;;6.83;58.41;99635.81;4468453;32;34034;-66
2022/01/20 10:55:22;;;;;;;;;;;;;;;6.58;59.58;99639.12;4467969;32;34428;-66
2022/01/20 10:57:56;;;;;;;;;;;;;;;6.86;59.09;99635.63;4468342;32;34103;-66
2022/01/20 11:00:26;;;;;;;;;;;;;;;6.75;59.43;99628.31;4467716;32;34204;-65
2022/01/20 11:02:57;;;;;;;;;;;;;;;6.83;59.44;99622.50;4467355;32;34033;-66
2022/01/20 11:05:25;;;;;;;;;;;;;;;6.72;59.05;99609.88;4468164;32;31856;-66
2022/01/20 11:07:53;;;;;;;;;;;;;;;6.74;59.59;99608.00;4466440;32;33715;-66
2022/01/20 11:10:24;;;;;;;;;;;;;;;6.25;60.68;99604.75;4469004;32;34083;-66
2022/01/20 11:12:52;;;;;;;;;;;;;;;6.60;59.64;99615.09;4466623;32;35133;-66
2022/01/20 11:15:20;;;;;;;;;;;;;;;6.79;59.23;99599.72;4468802;32;32475;-66
2022/01/20 11:17:51;;;;;;;;;;;;;;;6.75;58.91;99603.50;4468080;32;34079;-66
2022/01/20 11:20:21;;;;;;;;;;;;;;;6.68;59.12;99600.38;4466979;32;34296;-66
2022/01/20 11:22:53;;;;;;;;;;;;;;;7.20;57.67;99602.47;4467724;32;32883;-65
2022/01/20 11:25:23;;;;;;;;;;;;;;;7.13;57.69;99603.81;4466790;32;33016;-66
2022/01/20 11:27:52;;;;;;;;;;;;;;;6.95;57.72;99607.59;4465887;32;33465;-65
2022/01/20 11:30:26;;;;;;;;;;;;;;;7.07;57.12;99600.66;4462818;32;34342;-66
2022/01/20 11:33:07;;;;;;;;;;;;;;;7.03;57.47;99588.47;4466886;32;33936;-66
2022/01/20 11:35:43;;;;;;;;;;;;;;;7.47;55.89;99567.03;4466789;32;32794;-66
2022/01/20 11:38:12;;;;;;;;;;;;;;;7.73;54.43;99554.66;4467059;32;34388;-66
2022/01/20 11:40:59;;;;;;;;;;;;;;;7.53;54.74;99545.31;4463685;32;33980;-66
2022/01/20 11:43:39;;;;;;;;;;;;;;;7.60;54.75;99540.44;4462655;32;34456;-66
2022/01/20 11:46:11;;;;;;;;;;;;;;;8.01;53.43;99537.69;4463249;32;33040;-66
2022/01/20 11:48:58;;;;;;;;;;;;;;;8.02;53.35;99533.22;4466379;32;34168;-66
2022/01/20 11:51:48;;;;;;;;;;;;;;;8.19;53.02;99529.41;4466101;32;33016;-66
2022/01/20 11:54:34;;;;;;;;;;;;;;;8.25;52.77;99528.97;4458158;32;34021;-67
2022/01/20 11:57:11;;;;;;;;;;;;;;;8.61;51.61;99525.62;4460084;32;34330;-66
2022/01/20 11:59:50;;;;;;;;;;;;;;;8.29;51.93;99525.16;4458909;32;32457;-67
2022/01/20 12:02:27;;;;;;;;;;;;;;;8.44;51.70;99528.59;4459391;32;34175;-66
2022/01/20 12:04:56;;;;;;;;;;;;;;;8.51;51.65;99514.75;4465947;32;34413;-66
2022/01/20 12:07:25;;;;;;;;;;;;;;;8.23;52.68;99512.25;4465223;32;33615;-67
2022/01/20 12:10:03;;;;;;;;;;;;;;;8.53;51.37;99506.63;4463659;32;33350;-66
2022/01/20 12:12:31;;;;;;;;;;;;;;;8.98;50.05;99507.84;4463007;32;34257;-67
2022/01/20 12:15:12;;;;;;;;;;;;;;;8.96;49.60;99490.25;4465001;32;33800;-67
2022/01/20 12:17:41;;;;;;;;;;;;;;;8.90;49.64;99499.53;4468465;32;33015;-67
2022/01/20 12:20:10;;;;;;;;;;;;;;;8.72;49.94;99490.16;4465582;32;33914;-66
2022/01/20 12:22:38;;;;;;;;;;;;;;;8.71;49.78;99489.31;4461995;32;33123;-67
2022/01/20 12:25:06;;;;;;;;;;;;;;;8.90;49.23;99496.88;4466008;32;34136;-68
2022/01/20 12:27:33;;;;;;;;;;;;;;;9.09;47.77;99491.06;4465532;32;34409;-67
2022/01/20 12:30:00;;;;;;;;;;;;;;;8.82;47.75;99478.72;4462280;32;35210;-67
2022/01/20 12:32:28;;;;;;;;;;;;;;;8.77;48.30;99477.38;4462431;32;34469;-67
2022/01/20 12:34:56;;;;;;;;;;;;;;;9.05;47.26;99457.50;4464064;32;34277;-66
2022/01/20 12:37:33;;;;;;;;;;;;;;;8.74;47.50;99467.75;4465310;32;32941;-67
2022/01/20 12:40:06;;;;;;;;;;;;;;;9.28;46.67;99466.53;4465778;32;35210;-67
2022/01/20 12:42:34;;;;;;;;;;;;;;;9.02;47.08;99463.97;4464934;32;35490;-67
2022/01/20 12:45:54;;;;;;;;;;;;;;;9.07;46.95;99472.47;4463722;32;34421;-67
2022/01/20 12:47:49;;;;;;;;;;;;;;;9.32;46.49;99458.16;4463306;32;33176;-67
2022/01/20 12:50:16;;;;;;;;;;;;;;;9.54;45.81;99460.09;4464456;32;33886;-68
2022/01/20 12:52:50;;;;;;;;;;;;;;;9.25;46.51;99448.06;4460871;32;34204;-67
2022/01/20 12:55:19;;;;;;;;;;;;;;;9.08;46.90;99438.59;4465647;32;34103;-67
2022/01/20 12:57:47;;;;;;;;;;;;;;;9.21;46.09;99441.22;4464236;32;33315;-67
2022/01/20 13:00:14;;;;;;;;;;;;;;;9.32;46.21;99438.63;4462676;32;33944;-67
2022/01/20 13:02:42;;;;;;;;;;;;;;;9.50;45.53;99439.06;4464581;32;35368;-67
2022/01/20 13:05:09;;;;;;;;;;;;;;;9.74;44.79;99434.53;4450792;32;33905;-67
2022/01/20 13:07:38;;;;;;;;;;;;;;;9.48;45.10;99428.50;4465063;32;33459;-67
2022/01/20 13:10:33;;;;;;;;;;;;;;;9.16;45.68;99422.88;4458820;32;33985;-67
2022/01/20 13:13:02;;;;;;;;;;;;;;;8.86;46.68;99420.66;4463273;32;32950;-67
2022/01/20 13:15:30;;;;;;;;;;;;;;;9.63;45.23;99422.94;4458636;32;34512;-67
2022/01/20 13:18:02;;;;;;;;;;;;;;;9.53;44.70;99426.34;4472163;32;33110;-68
2022/01/20 13:20:31;;;;;;;;;;;;;;;9.39;45.28;99423.00;4459450;32;34252;-67
2022/01/20 13:23:09;;;;;;;;;;;;;;;9.45;44.71;99422.53;4464133;32;35429;-67
2022/01/20 13:25:40;;;;;;;;;;;;;;;9.49;44.49;99413.31;4461906;32;33084;-67
2022/01/20 13:28:08;;;;;;;;;;;;;;;9.64;44.47;99404.16;4465008;31;32510;-67
2022/01/20 13:30:41;;;;;;;;;;;;;;;9.69;43.74;99382.41;4463861;32;35451;-67
2022/01/20 13:33:14;;;;;;;;;;;;;;;9.96;42.81;99382.94;4464076;32;35318;-65
2022/01/20 13:35:46;;;;;;;;;;;;;;;10.52;41.73;99406.22;4463421;32;34084;-66
2022/01/20 13:38:13;;;;;;;;;;;;;;;9.63;42.66;99388.22;4462758;32;33323;-65
2022/01/20 13:40:47;;;;;;;;;;;;;;;10.38;42.15;99393.09;4464506;32;32900;-65
2022/01/20 13:46:03;;;;;;;;;;;;;;;9.82;42.86;99396.50;4457910;32;32705;-64
2022/01/20 13:48:34;;;;;;;;;;;;;;;9.79;42.50;99399.41;4463318;32;34517;-64
2022/01/20 13:51:03;;;;;;;;;;;;;;;10.34;41.62;99405.03;4466959;32;33975;-65
2022/01/20 13:53:31;;;;;;;;;;;;;;;10.33;41.55;99388.09;4464467;32;33086;-65
2022/01/20 13:56:01;;;;;;;;;;;;;;;9.83;42.32;99371.50;4463110;32;33195;-64
2022/01/20 13:58:33;;;;;;;;;;;;;;;9.73;42.03;99378.53;4468172;32;35888;-65
2022/01/20 14:01:05;;;;;;;;;;;;;;;9.23;43.44;99367.22;4458830;32;34374;-64
2022/01/20 14:03:33;;;;;;;;;;;;;;;8.82;44.48;99371.13;4459856;32;34170;-67
2022/01/20 14:06:00;;;;;;;;;;;;;;;9.48;43.41;99375.06;4457014;32;35233;-67
2022/01/20 14:08:27;;;;;;;;;;;;;;;9.71;43.50;99393.84;4463831;32;32962;-67
2022/01/20 14:10:55;;;;;;;;;;;;;;;9.79;42.74;99396.75;4456493;32;35208;-67
2022/01/20 14:13:22;;;;;;;;;;;;;;;9.59;42.64;99390.25;4463107;32;35790;-68
2022/01/20 14:15:51;;;;;;;;;;;;;;;9.25;43.58;99390.16;4468940;32;34376;-67
2022/01/20 14:18:22;;;;;;;;;;;;;;;9.68;43.26;99386.06;4467625;32;34944;-66
2022/01/20 14:20:49;;;;;;;;;;;;;;;9.79;42.58;99380.72;4465323;32;32807;-65
2022/01/20 14:23:16;;;;;;;;;;;;;;;9.37;43.00;99371.50;4456326;32;34754;-64
2022/01/20 14:25:46;;;;;;;;;;;;;;;8.59;44.01;99368.31;4460301;32;33853;-65
2022/01/20 14:28:14;;;;;;;;;;;;;;;8.95;43.27;99366.59;4459285;32;34504;-65
2022/01/20 14:30:42;;;;;;;;;;;;;;;9.23;42.10;99361.88;4458812;32;34104;-65